createdAt,value
2018-03-23T00:01:58.764Z,3.43
2018-03-23T00:04:27.931Z,3.37
2018-03-23T00:06:57.101Z,3.33
2018-03-23T00:09:26.252Z,3.30
2018-03-23T00:11:55.420Z,3.47
2018-03-23T00:14:24.581Z,3.20
2018-03-23T00:16:53.748Z,3.27
2018-03-23T00:19:22.895Z,3.60
2018-03-23T00:21:52.065Z,3.50
2018-03-23T00:24:21.220Z,3.73
2018-03-23T00:26:50.407Z,4.30
2018-03-23T00:29:19.568Z,4.77
2018-03-23T00:31:48.736Z,5.20
2018-03-23T00:34:17.891Z,5.03
2018-03-23T00:36:47.064Z,4.10
2018-03-23T00:39:16.234Z,4.00
2018-03-23T00:41:45.408Z,3.80
2018-03-23T00:44:14.573Z,3.80
2018-03-23T00:46:43.744Z,4.00
2018-03-23T00:49:12.892Z,3.40
2018-03-23T00:51:42.088Z,3.23
2018-03-23T00:54:11.243Z,3.67
2018-03-23T00:56:40.420Z,3.90
2018-03-23T00:59:09.583Z,3.93
2018-03-23T01:01:38.772Z,3.53
2018-03-23T01:04:07.940Z,4.00
2018-03-23T01:06:37.112Z,4.33
2018-03-23T01:09:06.265Z,3.97
2018-03-23T01:11:35.443Z,4.10
2018-03-23T01:14:04.591Z,4.27
2018-03-23T01:16:33.772Z,4.20
2018-03-23T01:19:02.932Z,4.03
2018-03-23T01:21:32.104Z,4.47
2018-03-23T01:24:01.261Z,4.03
2018-03-23T01:26:30.436Z,4.03
2018-03-23T01:29:00.288Z,4.23
2018-03-23T01:31:29.468Z,4.10
2018-03-23T01:33:58.624Z,3.90
2018-03-23T01:36:27.820Z,3.90
2018-03-23T01:38:57.017Z,4.30
2018-03-23T01:41:26.201Z,3.93
2018-03-23T01:43:55.399Z,4.27
2018-03-23T01:46:24.592Z,4.10
2018-03-23T01:48:53.744Z,3.70
2018-03-23T01:51:22.908Z,4.27
2018-03-23T01:53:52.064Z,4.07
2018-03-23T01:56:21.236Z,3.93
2018-03-23T01:58:50.404Z,4.30
2018-03-23T02:01:19.581Z,4.43
2018-03-23T02:03:48.758Z,4.10
2018-03-23T02:06:17.940Z,4.63
2018-03-23T02:08:47.096Z,5.13
2018-03-23T02:11:16.280Z,4.13
2018-03-23T02:13:45.444Z,4.80
2018-03-23T02:16:14.620Z,4.70
2018-03-23T02:18:43.789Z,5.10
2018-03-23T02:21:12.936Z,4.43
2018-03-23T02:23:42.115Z,4.70
2018-03-23T02:26:11.267Z,4.60
2018-03-23T02:28:40.475Z,5.20
2018-03-23T02:31:09.628Z,5.17
2018-03-23T02:33:38.797Z,5.10
2018-03-23T02:36:07.944Z,4.87
2018-03-23T02:38:37.113Z,4.90
2018-03-23T02:41:06.288Z,5.60
2018-03-23T02:43:35.463Z,5.17
2018-03-23T02:46:04.617Z,4.93
2018-03-23T02:48:33.815Z,5.73
2018-03-23T02:51:02.968Z,5.37
2018-03-23T02:53:32.161Z,4.77
2018-03-23T02:56:01.323Z,5.43
2018-03-23T02:58:30.492Z,5.93
2018-03-23T03:00:59.652Z,6.20
2018-03-23T03:03:28.824Z,6.70
2018-03-23T03:05:57.983Z,7.07
2018-03-23T03:08:27.160Z,6.40
2018-03-23T03:10:56.311Z,6.50
2018-03-23T03:13:25.475Z,6.33
2018-03-23T03:15:54.623Z,6.07
2018-03-23T03:18:23.811Z,5.90
2018-03-23T03:20:52.970Z,6.40
2018-03-23T03:23:22.155Z,6.90
2018-03-23T03:25:51.315Z,7.70
2018-03-23T03:28:20.496Z,7.90
2018-03-23T03:30:49.662Z,6.97
2018-03-23T03:33:18.839Z,7.53
2018-03-23T03:35:47.996Z,7.57
2018-03-23T03:38:17.172Z,7.53
2018-03-23T03:40:46.319Z,7.97
2018-03-23T03:43:15.509Z,7.93
2018-03-23T03:45:44.665Z,7.80
2018-03-23T03:48:13.841Z,7.27
2018-03-23T03:50:42.995Z,7.23
2018-03-23T03:53:12.162Z,7.70
2018-03-23T03:55:41.319Z,7.47
2018-03-23T03:58:10.503Z,6.73
2018-03-23T04:00:39.666Z,7.50
2018-03-23T04:03:08.841Z,7.13
2018-03-23T04:05:38.000Z,6.97
2018-03-23T04:08:07.184Z,7.80
2018-03-23T04:10:36.340Z,8.10
2018-03-23T04:13:05.548Z,8.00
2018-03-23T04:15:34.696Z,7.70
2018-03-23T04:18:03.871Z,8.13
2018-03-23T04:20:33.032Z,8.63
2018-03-23T04:23:02.207Z,7.80
2018-03-23T04:25:31.359Z,8.73
2018-03-23T04:28:00.536Z,8.50
2018-03-23T04:30:29.693Z,7.10
2018-03-23T04:32:58.890Z,7.33
2018-03-23T04:35:28.043Z,7.17
2018-03-23T04:37:57.212Z,7.33
2018-03-23T04:40:26.359Z,7.70
2018-03-23T04:42:55.532Z,7.60
2018-03-23T04:45:24.688Z,7.20
2018-03-23T04:47:53.884Z,7.67
2018-03-23T04:50:23.049Z,8.00
2018-03-23T04:52:52.215Z,7.73
2018-03-23T04:55:21.365Z,7.20
2018-03-23T04:57:50.535Z,7.90
2018-03-23T05:00:19.699Z,7.67
2018-03-23T05:02:48.872Z,7.30
2018-03-23T05:05:18.045Z,7.70
2018-03-23T05:07:47.228Z,8.17
2018-03-23T05:10:16.375Z,7.50
2018-03-23T05:12:45.553Z,7.20
2018-03-23T05:15:14.711Z,10.03
2018-03-23T05:17:43.888Z,10.50
2018-03-23T05:20:13.044Z,11.80
2018-03-23T05:22:42.216Z,7.73
2018-03-23T05:25:11.395Z,8.03
2018-03-23T05:27:40.604Z,8.07
2018-03-23T05:30:09.755Z,8.43
2018-03-23T05:32:38.965Z,8.67
2018-03-23T05:35:08.120Z,9.10
2018-03-23T05:37:37.309Z,11.90
2018-03-23T05:40:06.475Z,11.17
2018-03-23T05:42:36.023Z,9.47
2018-03-23T05:45:05.231Z,10.20
2018-03-23T05:47:34.632Z,9.93
2018-03-23T05:50:04.011Z,9.53
2018-03-23T05:52:33.249Z,10.87
2018-03-23T05:55:02.439Z,13.77
2018-03-23T05:57:31.623Z,13.07
2018-03-23T06:00:00.784Z,10.23
2018-03-23T06:02:29.971Z,10.13
2018-03-23T06:04:59.124Z,11.03
2018-03-23T06:07:28.301Z,9.93
2018-03-23T06:09:57.495Z,9.20
2018-03-23T06:12:26.651Z,13.03
2018-03-23T06:14:55.828Z,14.67
2018-03-23T06:17:24.996Z,13.10
2018-03-23T06:19:54.180Z,14.43
2018-03-23T06:22:23.341Z,13.67
2018-03-23T06:24:52.528Z,13.67
2018-03-23T06:27:21.690Z,12.67
2018-03-23T06:29:50.870Z,12.53
2018-03-23T06:32:20.028Z,13.03
2018-03-23T06:34:49.208Z,13.80
2018-03-23T06:37:18.375Z,13.70
2018-03-23T06:39:47.563Z,12.80
2018-03-23T06:42:16.732Z,13.73
2018-03-23T06:44:45.916Z,13.30
2018-03-23T06:47:15.080Z,12.93
2018-03-23T06:49:44.251Z,12.67
2018-03-23T06:52:13.412Z,13.80
2018-03-23T06:54:47.076Z,13.70
2018-03-23T06:57:16.278Z,13.07
2018-03-23T06:59:45.461Z,14.53
2018-03-23T07:02:14.643Z,15.33
2018-03-23T07:04:43.829Z,14.37
2018-03-23T07:07:12.984Z,14.10
2018-03-23T07:09:42.159Z,15.07
2018-03-23T07:12:11.319Z,15.53
2018-03-23T07:14:40.518Z,14.53
2018-03-23T07:17:09.677Z,12.80
2018-03-23T07:19:38.856Z,13.53
2018-03-23T07:22:08.012Z,14.07
2018-03-23T07:24:37.250Z,13.37
2018-03-23T07:27:06.436Z,12.70
2018-03-23T07:29:35.612Z,13.27
2018-03-23T07:32:04.824Z,12.87
2018-03-23T07:34:34.010Z,12.07
2018-03-23T07:37:03.166Z,13.73
2018-03-23T07:39:32.429Z,13.40
2018-03-23T07:42:01.604Z,13.30
2018-03-23T07:44:30.780Z,13.07
2018-03-23T07:46:59.955Z,12.77
2018-03-23T07:49:29.132Z,12.83
2018-03-23T07:51:58.292Z,12.73
2018-03-23T07:54:27.484Z,11.20
2018-03-23T07:56:56.639Z,12.20
2018-03-23T07:59:25.824Z,11.40
2018-03-23T08:01:54.987Z,12.77
2018-03-23T08:04:24.168Z,12.33
2018-03-23T08:06:53.393Z,10.57
2018-03-23T08:09:22.568Z,12.53
2018-03-23T08:11:51.724Z,12.93
2018-03-23T08:14:20.902Z,12.53
2018-03-23T08:16:50.072Z,13.40
2018-03-23T08:19:19.264Z,12.17
2018-03-23T08:21:48.424Z,12.00
2018-03-23T08:24:17.608Z,12.00
2018-03-23T08:26:46.761Z,12.43
2018-03-23T08:29:15.952Z,12.27
2018-03-23T08:31:45.107Z,13.40
2018-03-23T08:34:14.284Z,11.70
2018-03-23T08:36:43.445Z,11.23
2018-03-23T08:39:12.616Z,9.27
2018-03-23T08:41:41.789Z,9.83
2018-03-23T08:44:10.978Z,10.13
2018-03-23T08:46:40.137Z,9.30
2018-03-23T08:49:09.372Z,9.30
2018-03-23T08:51:38.496Z,9.07
2018-03-23T08:54:07.678Z,10.30
2018-03-23T08:56:36.841Z,10.37
2018-03-23T08:59:06.019Z,10.63
2018-03-23T09:01:35.176Z,10.37
2018-03-23T09:04:04.359Z,10.27
2018-03-23T09:06:33.524Z,10.53
2018-03-23T09:09:02.705Z,11.03
2018-03-23T09:11:31.872Z,12.30
2018-03-23T09:14:01.048Z,11.03
2018-03-23T09:16:30.209Z,12.27
2018-03-23T09:18:59.404Z,12.47
2018-03-23T09:21:28.561Z,13.13
2018-03-23T09:23:57.752Z,12.73
2018-03-23T09:26:26.914Z,12.87
2018-03-23T09:28:56.096Z,18.03
2018-03-23T09:31:25.253Z,13.50
2018-03-23T09:33:54.441Z,12.20
2018-03-23T09:36:23.604Z,12.00
2018-03-23T09:38:52.780Z,11.00
2018-03-23T09:41:21.934Z,11.73
2018-03-23T09:43:51.115Z,11.70
2018-03-23T09:46:20.271Z,11.73
2018-03-23T09:48:49.452Z,14.90
2018-03-23T09:51:18.611Z,14.10
2018-03-23T09:53:47.800Z,15.27
2018-03-23T09:56:16.961Z,14.67
2018-03-23T09:58:46.164Z,15.23
2018-03-23T10:01:15.329Z,11.20
2018-03-23T10:03:44.574Z,10.40
2018-03-23T10:06:13.691Z,9.97
2018-03-23T10:08:42.884Z,8.10
2018-03-23T10:11:12.045Z,8.27
2018-03-23T10:13:41.208Z,9.37
2018-03-23T10:16:10.383Z,11.67
2018-03-23T10:18:39.577Z,12.77
2018-03-23T10:21:08.766Z,10.67
2018-03-23T10:23:37.928Z,8.77
2018-03-23T10:26:07.124Z,9.23
2018-03-23T10:28:36.300Z,9.53
2018-03-23T10:31:05.481Z,8.50
2018-03-23T10:33:34.635Z,7.03
2018-03-23T10:36:03.800Z,4.60
2018-03-23T10:38:32.960Z,3.60
2018-03-23T10:41:02.132Z,4.20
2018-03-23T10:43:31.287Z,4.20
2018-03-23T10:46:00.458Z,4.40
2018-03-23T10:48:29.616Z,4.90
2018-03-23T10:50:58.799Z,5.37
2018-03-23T10:53:27.974Z,6.63
2018-03-23T10:55:57.150Z,6.50
2018-03-23T10:58:26.328Z,6.43
2018-03-23T11:01:01.165Z,6.83
2018-03-23T11:03:30.324Z,6.93
2018-03-23T11:05:59.496Z,6.30
2018-03-23T11:08:28.658Z,8.07
2018-03-23T11:10:57.848Z,6.93
2018-03-23T11:13:27.000Z,7.57
2018-03-23T11:15:56.162Z,5.97
2018-03-23T11:18:25.315Z,6.27
2018-03-23T11:20:54.492Z,6.33
2018-03-23T11:23:23.648Z,6.30
2018-03-23T11:25:52.827Z,7.33
2018-03-23T11:28:21.984Z,8.50
2018-03-23T11:30:51.154Z,8.33
2018-03-23T11:33:20.306Z,9.37
2018-03-23T11:35:49.486Z,8.60
2018-03-23T11:38:18.648Z,10.77
2018-03-23T11:40:47.824Z,11.37
2018-03-23T11:43:16.984Z,12.57
2018-03-23T11:45:46.162Z,13.77
2018-03-23T11:48:15.323Z,13.93
2018-03-23T11:50:44.610Z,14.57
2018-03-23T11:53:13.680Z,13.70
2018-03-23T11:55:42.859Z,13.53
2018-03-23T11:58:12.023Z,14.40
2018-03-23T12:00:41.216Z,13.93
2018-03-23T12:03:10.404Z,14.27
2018-03-23T12:05:39.579Z,13.77
2018-03-23T12:08:08.735Z,13.47
2018-03-23T12:10:37.912Z,13.30
2018-03-23T12:13:07.069Z,14.23
2018-03-23T12:15:36.264Z,12.53
2018-03-23T12:18:05.587Z,13.20
2018-03-23T12:20:34.773Z,15.83
2018-03-23T12:23:03.941Z,14.60
2018-03-23T12:25:33.119Z,15.07
2018-03-23T12:28:02.280Z,15.47
2018-03-23T12:30:31.456Z,16.23
2018-03-23T12:33:00.624Z,18.03
2018-03-23T12:35:29.800Z,18.80
2018-03-23T12:37:59.025Z,17.17
2018-03-23T12:40:28.174Z,18.03
2018-03-23T12:42:57.345Z,19.10
2018-03-23T12:45:26.529Z,17.73
2018-03-23T12:47:55.710Z,18.33
2018-03-23T12:50:24.889Z,19.43
2018-03-23T12:52:54.046Z,18.17
2018-03-23T12:55:23.228Z,20.07
2018-03-23T12:57:52.414Z,20.10
2018-03-23T13:00:21.606Z,19.33
2018-03-23T13:02:50.763Z,20.00
2018-03-23T13:05:19.949Z,19.30
2018-03-23T13:07:49.110Z,20.07
2018-03-23T13:10:18.292Z,20.20
2018-03-23T13:12:47.456Z,19.27
2018-03-23T13:15:16.628Z,20.23
2018-03-23T13:17:45.785Z,19.97
2018-03-23T13:20:14.960Z,20.53
2018-03-23T13:22:44.186Z,21.67
2018-03-23T13:25:13.320Z,20.63
2018-03-23T13:27:42.513Z,22.70
2018-03-23T13:30:11.703Z,21.77
2018-03-23T13:32:40.872Z,20.93
2018-03-23T13:35:10.048Z,21.10
2018-03-23T13:37:39.207Z,22.87
2018-03-23T13:40:08.387Z,22.03
2018-03-23T13:42:37.543Z,22.30
2018-03-23T13:45:06.728Z,22.67
2018-03-23T13:47:36.014Z,21.87
2018-03-23T13:50:05.334Z,22.43
2018-03-23T13:52:34.495Z,22.80
2018-03-23T13:55:03.758Z,22.67
2018-03-23T13:57:32.930Z,23.17
2018-03-23T14:00:02.127Z,23.70
2018-03-23T14:02:31.305Z,21.57
2018-03-23T14:05:01.339Z,23.03
2018-03-23T14:07:30.538Z,26.30
2018-03-23T14:09:59.733Z,23.47
2018-03-23T14:12:28.920Z,27.87
2018-03-23T14:14:58.082Z,27.83
2018-03-23T14:17:27.257Z,30.83
2018-03-23T14:19:56.417Z,31.13
2018-03-23T14:22:25.625Z,31.73
2018-03-23T14:24:54.792Z,31.70
2018-03-23T14:27:23.975Z,32.67
2018-03-23T14:29:53.131Z,32.53
2018-03-23T14:32:22.325Z,33.23
2018-03-23T14:34:51.513Z,32.50
2018-03-23T14:37:20.688Z,35.37
2018-03-23T14:39:49.848Z,35.63
2018-03-23T14:42:19.021Z,33.83
2018-03-23T14:47:21.660Z,38.00
2018-03-23T14:49:50.840Z,37.60
2018-03-23T14:52:20.018Z,39.70
2018-03-23T14:54:49.208Z,38.37
2018-03-23T14:57:18.388Z,39.73
2018-03-23T14:59:47.546Z,40.60
2018-03-23T15:02:16.731Z,43.03
2018-03-23T15:04:45.884Z,43.57
2018-03-23T15:07:15.072Z,40.67
2018-03-23T15:09:44.239Z,38.67
2018-03-23T15:12:13.416Z,45.47
2018-03-23T15:14:42.572Z,45.60
2018-03-23T15:17:11.760Z,45.73
2018-03-23T15:19:40.924Z,48.73
2018-03-23T15:22:10.108Z,48.50
2018-03-23T15:24:39.268Z,47.43
2018-03-23T15:27:08.448Z,49.40
2018-03-23T15:29:37.624Z,51.13
2018-03-23T15:32:06.805Z,52.83
2018-03-23T15:34:35.976Z,52.77
2018-03-23T15:37:05.158Z,51.13
2018-03-23T15:39:34.371Z,49.57
2018-03-23T15:42:03.527Z,50.30
2018-03-23T15:44:32.694Z,50.30
2018-03-23T15:47:01.874Z,48.90
2018-03-23T15:49:31.036Z,48.47
2018-03-23T15:52:00.211Z,46.47
2018-03-23T15:54:29.372Z,46.50
2018-03-23T15:56:58.556Z,46.57
2018-03-23T15:59:27.723Z,45.63
2018-03-23T16:01:56.938Z,46.37
2018-03-23T16:04:26.108Z,46.40
2018-03-23T16:09:29.619Z,45.43
2018-03-23T16:11:58.797Z,44.80
2018-03-23T16:14:27.992Z,43.97
2018-03-23T16:16:57.176Z,42.50
2018-03-23T16:19:26.336Z,41.47
2018-03-23T16:21:55.515Z,42.30
2018-03-23T16:24:24.683Z,41.03
2018-03-23T16:26:53.880Z,42.57
2018-03-23T16:29:23.056Z,41.43
2018-03-23T16:31:52.233Z,41.93
2018-03-23T16:34:21.390Z,42.20
2018-03-23T16:36:50.579Z,42.70
2018-03-23T16:39:19.753Z,41.80
2018-03-23T16:41:48.945Z,44.13
2018-03-23T16:44:18.107Z,42.10
2018-03-23T16:46:47.294Z,42.43
2018-03-23T16:49:16.452Z,40.30
2018-03-23T16:51:45.652Z,42.27
2018-03-23T16:54:14.813Z,42.33
2018-03-23T16:56:43.997Z,41.83
2018-03-23T16:59:13.156Z,43.63
2018-03-23T17:01:42.352Z,41.87
2018-03-23T17:04:11.516Z,45.57
2018-03-23T17:06:40.701Z,44.27
2018-03-23T17:09:09.856Z,44.67
2018-03-23T17:11:39.028Z,42.87
2018-03-23T17:14:08.204Z,43.97
2018-03-23T17:16:37.382Z,42.33
2018-03-23T17:19:06.548Z,45.00
2018-03-23T17:21:35.728Z,45.53
2018-03-23T17:24:04.891Z,44.70
2018-03-23T17:26:34.072Z,44.70
2018-03-23T17:29:03.249Z,42.97
2018-03-23T17:31:32.450Z,42.57
2018-03-23T17:34:01.616Z,45.03
2018-03-23T17:36:30.817Z,43.10
2018-03-23T17:38:59.983Z,42.90
2018-03-23T17:41:29.178Z,50.57
2018-03-23T17:43:58.351Z,44.23
2018-03-23T17:46:28.284Z,44.03
2018-03-23T17:48:57.455Z,45.67
2018-03-23T17:51:26.674Z,45.90
2018-03-23T17:53:55.836Z,44.87
2018-03-23T17:56:25.032Z,45.20
2018-03-23T17:58:54.192Z,46.97
2018-03-23T18:01:23.377Z,48.40
2018-03-23T18:03:52.544Z,47.47
2018-03-23T18:06:21.770Z,45.97
2018-03-23T18:08:50.937Z,46.13
2018-03-23T18:11:20.119Z,45.83
2018-03-23T18:13:49.300Z,46.20
2018-03-23T18:16:18.475Z,45.53
2018-03-23T18:18:47.660Z,46.23
2018-03-23T18:23:52.377Z,46.00
2018-03-23T18:26:21.550Z,45.30
2018-03-23T18:28:50.724Z,45.40
2018-03-23T18:31:20.759Z,48.47
2018-03-23T18:33:50.062Z,46.83
2018-03-23T18:36:19.290Z,47.50
2018-03-23T18:38:48.527Z,48.63
2018-03-23T18:41:17.763Z,48.00
2018-03-23T18:43:47.543Z,46.90
2018-03-23T18:46:16.792Z,46.33
2018-03-23T18:48:46.053Z,48.23
2018-03-23T18:51:15.281Z,45.83
2018-03-23T18:53:44.534Z,47.23
2018-03-23T18:56:13.930Z,46.93
2018-03-23T18:58:43.171Z,45.20
2018-03-23T19:01:12.381Z,47.27
2018-03-23T19:03:41.573Z,46.37
2018-03-23T19:06:10.737Z,48.33
2018-03-23T19:08:39.928Z,48.60
2018-03-23T19:11:09.083Z,44.63
2018-03-23T19:13:38.277Z,46.17
2018-03-23T19:16:07.444Z,43.57
2018-03-23T19:18:36.720Z,46.33
2018-03-23T19:21:05.902Z,43.23
2018-03-23T19:23:35.094Z,44.93
2018-03-23T19:26:04.252Z,44.93
2018-03-23T19:28:33.436Z,46.87
2018-03-23T19:31:02.595Z,44.27
2018-03-23T19:33:31.799Z,43.03
2018-03-23T19:36:00.959Z,43.13
2018-03-23T19:38:30.162Z,40.80
2018-03-23T19:40:59.328Z,42.90
2018-03-23T19:43:28.525Z,40.30
2018-03-23T19:45:57.683Z,41.53
2018-03-23T19:48:26.862Z,42.00
2018-03-23T19:50:56.034Z,41.87
2018-03-23T19:53:25.224Z,45.10
2018-03-23T19:55:54.397Z,40.10
2018-03-23T19:58:23.583Z,41.27
2018-03-23T20:00:52.744Z,45.13
2018-03-23T20:03:21.933Z,43.47
2018-03-23T20:05:51.229Z,42.97
2018-03-23T20:08:20.418Z,46.30
2018-03-23T20:10:49.712Z,46.47
2018-03-23T20:13:18.896Z,49.27
2018-03-23T20:15:48.058Z,46.13
2018-03-23T20:18:21.171Z,46.67
2018-03-23T20:20:56.294Z,45.73
2018-03-23T20:23:25.481Z,49.03
2018-03-23T20:25:54.644Z,47.97
2018-03-23T20:28:29.680Z,47.03
2018-03-23T20:30:58.840Z,46.00
2018-03-23T20:33:28.033Z,46.03
2018-03-23T20:35:57.196Z,41.60
2018-03-23T20:38:26.399Z,40.43
2018-03-23T20:40:55.634Z,37.67
2018-03-23T20:43:24.815Z,44.13
2018-03-23T20:45:53.967Z,40.47
2018-03-23T20:48:23.151Z,44.47
2018-03-23T20:50:52.307Z,43.97
2018-03-23T20:53:21.501Z,40.13
2018-03-23T20:55:50.672Z,44.53
2018-03-23T20:58:19.861Z,42.43
2018-03-23T21:00:49.020Z,42.97
2018-03-23T21:03:18.204Z,42.20
2018-03-23T21:05:48.047Z,38.07
2018-03-23T21:08:17.244Z,37.10
2018-03-23T21:10:46.409Z,37.23
2018-03-23T21:13:15.588Z,36.30
2018-03-23T21:15:44.768Z,35.03
2018-03-23T21:18:13.947Z,39.93
2018-03-23T21:20:43.116Z,42.07
2018-03-23T21:23:12.304Z,40.50
2018-03-23T21:25:41.464Z,39.90
2018-03-23T21:28:10.644Z,38.07
2018-03-23T21:30:39.817Z,42.93
2018-03-23T21:33:09.003Z,40.77
2018-03-23T21:35:38.165Z,53.40
2018-03-23T21:38:07.339Z,42.70
2018-03-23T21:40:36.504Z,134.17
2018-03-23T21:43:05.688Z,44.27
2018-03-23T21:45:34.848Z,45.93
2018-03-23T21:48:04.042Z,48.90
2018-03-23T21:50:33.203Z,61.67
2018-03-23T21:53:02.392Z,59.47
2018-03-23T21:55:31.548Z,51.93
2018-03-23T21:58:00.748Z,50.50
2018-03-23T22:00:29.933Z,49.43
2018-03-23T22:02:59.125Z,49.30
2018-03-23T22:05:28.346Z,49.07
2018-03-23T22:07:57.528Z,49.70
2018-03-23T22:10:26.715Z,48.00
2018-03-23T22:12:55.897Z,48.73
2018-03-23T22:15:25.096Z,49.47
2018-03-23T22:17:54.296Z,50.30
2018-03-23T22:20:23.480Z,49.13
2018-03-23T22:22:52.635Z,49.87
2018-03-23T22:25:21.823Z,49.20
2018-03-23T22:27:51.020Z,50.03
2018-03-23T22:30:20.382Z,50.80
2018-03-23T22:32:49.547Z,49.93
2018-03-23T22:35:18.715Z,48.13
2018-03-23T22:37:47.887Z,50.07
2018-03-23T22:40:17.084Z,51.33
2018-03-23T22:42:46.258Z,49.67
2018-03-23T22:45:15.448Z,50.23
2018-03-23T22:47:44.661Z,50.53
2018-03-23T22:50:13.916Z,49.47
2018-03-23T22:52:43.082Z,49.40
2018-03-23T22:55:12.254Z,50.63
2018-03-23T22:57:41.416Z,51.17
2018-03-23T23:00:10.599Z,48.80
2018-03-23T23:02:39.755Z,51.10
2018-03-23T23:05:08.931Z,47.40
2018-03-23T23:07:38.113Z,47.80
2018-03-23T23:10:07.288Z,46.77
2018-03-23T23:12:36.467Z,45.67
2018-03-23T23:15:05.623Z,46.63
2018-03-23T23:17:34.787Z,48.03
2018-03-23T23:20:04.004Z,47.90
2018-03-23T23:22:33.153Z,48.20
2018-03-23T23:25:02.346Z,50.47
2018-03-23T23:27:31.508Z,47.43
2018-03-23T23:30:00.704Z,48.67
2018-03-23T23:32:29.868Z,50.80
2018-03-23T23:34:59.064Z,46.97
2018-03-23T23:40:01.724Z,47.20
2018-03-23T23:42:30.888Z,47.80
2018-03-23T23:45:00.070Z,48.10
2018-03-23T23:47:29.250Z,49.10
2018-03-23T23:49:58.436Z,46.57
2018-03-23T23:52:27.648Z,47.20
2018-03-23T23:54:56.824Z,46.47
2018-03-23T23:57:25.988Z,46.87
2018-03-23T23:59:55.173Z,47.60
